Flight Track Log - Related Links

Times and Time Zones

All times are in EDT time to prevent confusion due to time zone crossing. See the SWA2702 flight status page for this flight to view local times or setup timezone preferences in your user account.

Time Position Orientation Groundspeed Altitude Reporting Facility
EDT Latitude Longitude Course Direction KTS MPH feet Rate Location/Type
Thu 11:11:31 AM 33.7333 -117.8333 231° Southwest 204 235 3,900  Level Southern California TRACON
Thu 11:13:29 AM 33.6181 -117.7942 164° South 280 322 10,200 2,867 Climbing Los Angeles Center
Thu 11:14:31 AM 33.5525 -117.8231 200° South 301 346 12,500 1,403 Climbing Los Angeles Center
Thu 11:15:33 AM 33.4514 -117.8911 209° Southwest 347 399 13,100 532 Climbing Los Angeles Center
Thu 11:16:00 AM 33.4340 -118.0491 231° Southwest  Level FlightAware Approximate
Thu 11:16:35 AM 33.3767 -117.9692 221° Southwest 354 407 13,600  Level Los Angeles Center
Thu 11:17:37 AM 33.2942 -118.0517 220° Southwest 370 426 16,600 3,120 Climbing Los Angeles Center
Thu 11:18:40 AM 33.2692 -118.1878 258° West 381 438 20,100 2,976 Climbing Los Angeles Center
Thu 11:19:42 AM 33.3372 -118.2786 312° West 362 417 22,800 2,293 Climbing Los Angeles Center
Thu 11:20:43 AM 33.3942 -118.3519 313° West 365 420 24,800 2,226 Climbing Los Angeles Center
Thu 11:21:46 AM 33.4842 -118.4661 313° West 380 437 27,400 2,112 Climbing Los Angeles Center
Thu 11:22:48 AM 33.5628 -118.5644 314° West 397 457 29,200 1,984 Climbing Los Angeles Center
Thu 11:23:50 AM 33.6425 -118.6647 314° West 409 471 31,500 2,129 Climbing Los Angeles Center
Thu 11:24:52 AM 33.7197 -118.7619 314° West 401 461 33,600 2,081 Climbing Los Angeles Center
Thu 11:25:54 AM 33.8106 -118.8758 314° West 393 452 35,800 1,790 Climbing Los Angeles Center
Thu 11:26:56 AM 33.8842 -118.9714 313° West 389 448 37,300 1,065 Climbing Los Angeles Center
Thu 11:27:58 AM 33.9600 -119.0664 314° West 392 451 38,000 339 Climbing Los Angeles Center
Thu 11:29:00 AM 34.0364 -119.1633 314° West 398 458 38,000  Level Los Angeles Center
Thu 11:30:02 AM 34.1117 -119.2606 313° West 397 457 38,000  Level Los Angeles Center
Thu 11:31:04 AM 34.1861 -119.3564 313° West 392 451 38,000  Level Los Angeles Center
Thu 11:32:06 AM 34.2600 -119.4511 313° West 389 448 38,000  Level Los Angeles Center
Thu 11:33:08 AM 34.3494 -119.5664 313° West 391 450 38,000  Level Los Angeles Center
Thu 11:34:10 AM 34.4214 -119.6611 313° West 384 442 38,000  Level Los Angeles Center
Thu 11:35:12 AM 34.4944 -119.7553 313° West 384 442 38,000  Level Los Angeles Center
Thu 11:36:14 AM 34.5742 -119.8439 318° Northwest 387 445 38,000  Level Los Angeles Center
Thu 11:37:16 AM 34.6578 -119.9347 318° Northwest 385 443 38,000  Level Los Angeles Center
Thu 11:38:17 AM 34.7217 -120.0044 318° Northwest 387 445 38,000  Level Los Angeles Center
Thu 11:39:20 AM 34.8294 -120.1206 319° Northwest 386 444 38,000  Level Los Angeles Center
Thu 11:40:22 AM 34.9097 -120.2086 318° Northwest 390 449 38,000  Level Los Angeles Center
Thu 11:41:24 AM 34.9892 -120.2967 318° Northwest 391 450 38,000  Level Los Angeles Center
Thu 11:42:25 AM 35.0694 -120.3844 318° Northwest 391 450 38,000  Level Los Angeles Center
Thu 11:43:40 AM 35.1650 -120.4908 318° Northwest 391 450 38,000  Level Los Angeles Center
Thu 11:44:42 AM 35.2611 -120.5992 317° Northwest 394 453 38,000  Level Los Angeles Center
Thu 11:45:44 AM 35.3444 -120.6869 319° Northwest 398 458 38,000  Level Los Angeles Center
Thu 11:46:46 AM 35.4344 -120.7669 324° Northwest 401 461 38,000  Level Los Angeles Center
Thu 11:47:48 AM 35.5206 -120.8433 324° Northwest 398 458 38,000  Level Oakland Center
Thu 11:48:50 AM 35.6289 -120.9411 324° Northwest 400 460 38,000  Level Oakland Center
Thu 11:49:51 AM 35.7175 -121.0225 323° Northwest 397 457 38,000 -197 Level Oakland Center
Thu 11:50:52 AM 35.8072 -121.1036 324° Northwest 397 457 37,600 -683 Descending Oakland Center
Thu 11:51:54 AM 35.8950 -121.1831 324° Northwest 391 450 36,600 -976 Descending Oakland Center
Thu 11:52:55 AM 35.9811 -121.2586 325° Northwest 380 437 35,600 -1,268 Descending Oakland Center
Thu 11:53:57 AM 36.0683 -121.3414 323° Northwest 391 450 34,000 -1,805 Descending Oakland Center
Thu 11:54:58 AM 36.1536 -121.4161 325° Northwest 377 434 31,900 -1,967 Descending Oakland Center
Thu 11:55:59 AM 36.2331 -121.4919 322° Northwest 362 417 30,000 -1,854 Descending Oakland Center
Thu 11:57:01 AM 36.3106 -121.5614 324° Northwest 343 395 28,100 -1,805 Descending Oakland Center
Thu 11:58:02 AM 36.3839 -121.6317 322° Northwest 333 383 26,300 -1,902 Descending Oakland Center
Thu 11:59:04 AM 36.4706 -121.7097 324° Northwest 320 368 24,200 -1,854 Descending Oakland Center
Thu 12:00:05 PM 36.5383 -121.7761 322° Northwest 312 359 22,500 -1,688 Descending Oakland Center
Thu 12:00:40 PM 36.5833 -121.8167 324° Northwest 310 357 21,500 -1,618 Descending Northern Cal TRACON
Thu 12:01:34 PM 36.6500 -121.8667 329° Northwest 306 352 20,100 -1,632 Descending Northern Cal TRACON
Thu 12:02:34 PM 36.7167 -121.9333 321° Northwest 301 346 18,400 -1,800 Descending Northern Cal TRACON
Thu 12:03:34 PM 36.7833 -121.9667 338° Northwest 308 354 16,500 -1,684 Descending Northern Cal TRACON
Thu 12:04:28 PM 36.8500 -122.0000 338° Northwest 294 338 15,200 -1,469 Descending Northern Cal TRACON
Thu 12:05:12 PM 36.9114 -122.0081 354° North 289 333 14,100 -1,528 Descending Oakland Center
Thu 12:06:14 PM 36.9875 -122.0267 349° North 281 323 12,500 -1,512 Descending Oakland Center
Thu 12:07:15 PM 37.0631 -122.0467 348° North 278 320 11,000 -1,230 Descending Oakland Center
Thu 12:08:16 PM 37.1347 -122.0658 348° North 265 305 10,000 -1,122 Descending Oakland Center
Thu 12:09:18 PM 37.1869 -122.1144 323° Northwest 247 284 8,700 -1,268 Descending Oakland Center
Thu 12:10:19 PM 37.2342 -122.1792 313° West 251 289 7,400 -984 Descending Oakland Center
Thu 12:11:20 PM 37.2956 -122.1867 354° North 228 262 6,700 -780 Descending Oakland Center
Thu 12:12:22 PM 37.3633 -122.1794 North 203 234 5,800 -976 Descending Oakland Center
Thu 12:13:23 PM 37.4156 -122.1725 North 191 220 4,700 -885 Descending Oakland Center
Thu 12:14:24 PM 37.4664 -122.1747 358° North 186 214 4,000 -780 Descending Oakland Center
Thu 12:15:26 PM 37.5089 -122.1531 22° Northeast 178 205 3,100 -732 Descending Oakland Center
Thu 12:16:27 PM 37.5414 -122.1964 313° West 172 198 2,500 -590 Descending Oakland Center
Thu 12:17:28 PM 37.5633 -122.2458 299° West 166 191 1,900 -683 Descending Oakland Center
Thu 12:18:30 PM 37.5850 -122.2981 298° West 166 191 1,100 -780 Descending Oakland Center
Thu 12:19:31 PM 37.6025 -122.3411 297° West 155 178 300 -492 Descending Oakland Center
Thu 12:20:32 PM 37.6189 -122.3836 296° West 152 175 100 -197 Descending Oakland Center
Thu 12:22:00 PM 37.6167 -122.3667 322° Northwest  Level FlightAware Approximate

Login

Don't have an account? Register now (free) for customized features, flight alerts, and more!